sensor_id;sensor_type;location;lat;lon;timestamp;pressure;altitude;pressure_sealevel;temperature;humidity
24160;BME280;62385;41.594;23.808;2023-08-21T00:00:44;95615.50;;;25.51;41.85
24160;BME280;62385;41.594;23.808;2023-08-21T00:03:10;95594.91;;;25.28;42.25
24160;BME280;62385;41.594;23.808;2023-08-21T00:05:35;95616.22;;;25.41;42.08
24160;BME280;62385;41.594;23.808;2023-08-21T00:08:01;95619.09;;;25.24;42.53
24160;BME280;62385;41.594;23.808;2023-08-21T00:10:26;95593.22;;;25.22;42.40
24160;BME280;62385;41.594;23.808;2023-08-21T00:12:53;95603.91;;;25.28;42.18
24160;BME280;62385;41.594;23.808;2023-08-21T00:15:19;95620.34;;;25.12;42.88
24160;BME280;62385;41.594;23.808;2023-08-21T00:17:45;95617.22;;;24.98;43.19
24160;BME280;62385;41.594;23.808;2023-08-21T00:20:10;95609.59;;;24.95;43.46
24160;BME280;62385;41.594;23.808;2023-08-21T00:22:36;95617.81;;;24.78;44.13
24160;BME280;62385;41.594;23.808;2023-08-21T00:25:02;95617.47;;;24.97;43.45
24160;BME280;62385;41.594;23.808;2023-08-21T00:27:28;95598.28;;;24.81;43.58
24160;BME280;62385;41.594;23.808;2023-08-21T00:29:54;95617.94;;;24.89;43.69
24160;BME280;62385;41.594;23.808;2023-08-21T00:32:20;95602.50;;;24.94;43.29
24160;BME280;62385;41.594;23.808;2023-08-21T00:34:46;95615.75;;;24.64;44.11
24160;BME280;62385;41.594;23.808;2023-08-21T00:37:12;95617.44;;;24.43;44.78
24160;BME280;62385;41.594;23.808;2023-08-21T00:39:38;95623.78;;;24.32;45.13
24160;BME280;62385;41.594;23.808;2023-08-21T00:42:04;95624.09;;;24.35;44.98
24160;BME280;62385;41.594;23.808;2023-08-21T00:44:31;95606.19;;;24.34;44.45
24160;BME280;62385;41.594;23.808;2023-08-21T00:46:57;95613.00;;;24.59;44.33
24160;BME280;62385;41.594;23.808;2023-08-21T00:49:23;95596.78;;;24.42;44.48
24160;BME280;62385;41.594;23.808;2023-08-21T00:51:49;95613.53;;;24.34;44.74
24160;BME280;62385;41.594;23.808;2023-08-21T00:54:15;95614.75;;;24.48;44.52
24160;BME280;62385;41.594;23.808;2023-08-21T00:56:42;95617.69;;;24.42;44.50
24160;BME280;62385;41.594;23.808;2023-08-21T00:59:07;95614.66;;;24.65;43.85
24160;BME280;62385;41.594;23.808;2023-08-21T01:01:34;95616.84;;;24.63;43.57
24160;BME280;62385;41.594;23.808;2023-08-21T01:04:02;95603.31;;;24.68;43.61
24160;BME280;62385;41.594;23.808;2023-08-21T01:06:29;95617.00;;;24.56;44.03
24160;BME280;62385;41.594;23.808;2023-08-21T01:15:06;95614.66;;;24.87;43.23
24160;BME280;62385;41.594;23.808;2023-08-21T01:17:34;95615.50;;;24.65;43.42
24160;BME280;62385;41.594;23.808;2023-08-21T01:20:01;95624.25;;;24.72;43.33
24160;BME280;62385;41.594;23.808;2023-08-21T01:22:39;95607.88;;;24.62;43.63
24160;BME280;62385;41.594;23.808;2023-08-21T01:25:05;95621.44;;;24.62;44.03
24160;BME280;62385;41.594;23.808;2023-08-21T01:27:32;95614.06;;;24.58;44.00
24160;BME280;62385;41.594;23.808;2023-08-21T01:29:59;95606.31;;;24.45;43.83
24160;BME280;62385;41.594;23.808;2023-08-21T01:33:16;95620.69;;;24.45;44.42
24160;BME280;62385;41.594;23.808;2023-08-21T01:35:36;95618.19;;;24.39;44.34
24160;BME280;62385;41.594;23.808;2023-08-21T01:38:03;95612.75;;;24.17;44.97
24160;BME280;62385;41.594;23.808;2023-08-21T01:40:29;95602.22;;;24.42;44.59
24160;BME280;62385;41.594;23.808;2023-08-21T01:42:58;95597.34;;;24.01;45.01
24160;BME280;62385;41.594;23.808;2023-08-21T01:45:24;95616.06;;;24.02;45.22
24160;BME280;62385;41.594;23.808;2023-08-21T01:47:50;95607.22;;;24.12;45.13
24160;BME280;62385;41.594;23.808;2023-08-21T01:50:16;95623.25;;;23.91;45.31
24160;BME280;62385;41.594;23.808;2023-08-21T01:52:42;95603.34;;;24.24;44.58
24160;BME280;62385;41.594;23.808;2023-08-21T01:55:08;95594.31;;;24.19;44.54
24160;BME280;62385;41.594;23.808;2023-08-21T01:57:34;95611.97;;;24.00;45.39
24160;BME280;62385;41.594;23.808;2023-08-21T02:00:00;95616.53;;;24.16;44.94
24160;BME280;62385;41.594;23.808;2023-08-21T02:02:25;95616.25;;;23.96;45.47
24160;BME280;62385;41.594;23.808;2023-08-21T02:04:52;95613.84;;;23.99;45.65
24160;BME280;62385;41.594;23.808;2023-08-21T02:07:19;95616.28;;;23.79;45.99
24160;BME280;62385;41.594;23.808;2023-08-21T02:09:44;95618.91;;;23.74;46.03
24160;BME280;62385;41.594;23.808;2023-08-21T02:12:10;95592.59;;;23.91;45.37
24160;BME280;62385;41.594;23.808;2023-08-21T02:14:35;95600.88;;;23.63;45.88
24160;BME280;62385;41.594;23.808;2023-08-21T02:17:01;95608.28;;;23.67;45.94
24160;BME280;62385;41.594;23.808;2023-08-21T02:19:28;95600.34;;;23.82;45.63
24160;BME280;62385;41.594;23.808;2023-08-21T02:21:53;95600.13;;;23.67;45.72
24160;BME280;62385;41.594;23.808;2023-08-21T02:24:19;95612.41;;;23.91;45.79
24160;BME280;62385;41.594;23.808;2023-08-21T02:26:44;95604.66;;;23.62;46.30
24160;BME280;62385;41.594;23.808;2023-08-21T02:29:11;95610.81;;;23.57;46.54
24160;BME280;62385;41.594;23.808;2023-08-21T02:31:36;95620.88;;;23.78;46.07
24160;BME280;62385;41.594;23.808;2023-08-21T02:34:03;95620.22;;;23.88;47.28
24160;BME280;62385;41.594;23.808;2023-08-21T02:36:29;95613.88;;;23.44;48.33
24160;BME280;62385;41.594;23.808;2023-08-21T02:38:55;95609.56;;;23.65;47.12
24160;BME280;62385;41.594;23.808;2023-08-21T02:41:21;95615.66;;;23.38;48.58
24160;BME280;62385;41.594;23.808;2023-08-21T02:43:47;95618.84;;;23.69;46.91
24160;BME280;62385;41.594;23.808;2023-08-21T02:46:13;95621.41;;;23.75;46.23
24160;BME280;62385;41.594;23.808;2023-08-21T02:48:40;95606.63;;;23.66;47.19
24160;BME280;62385;41.594;23.808;2023-08-21T02:51:06;95621.84;;;23.51;47.23
24160;BME280;62385;41.594;23.808;2023-08-21T02:53:31;95621.50;;;23.64;46.71
24160;BME280;62385;41.594;23.808;2023-08-21T02:55:57;95606.63;;;23.33;47.14
24160;BME280;62385;41.594;23.808;2023-08-21T02:58:22;95620.38;;;23.43;47.01
24160;BME280;62385;41.594;23.808;2023-08-21T03:00:48;95619.97;;;23.51;46.88
24160;BME280;62385;41.594;23.808;2023-08-21T03:03:33;95608.34;;;23.39;47.15
24160;BME280;62385;41.594;23.808;2023-08-21T03:06:01;95623.72;;;23.50;47.09
24160;BME280;62385;41.594;23.808;2023-08-21T03:08:27;95612.38;;;23.36;47.31
24160;BME280;62385;41.594;23.808;2023-08-21T03:10:52;95621.09;;;23.22;48.68
24160;BME280;62385;41.594;23.808;2023-08-21T03:13:20;95608.91;;;23.08;48.36
24160;BME280;62385;41.594;23.808;2023-08-21T03:15:46;95622.06;;;23.32;48.94
24160;BME280;62385;41.594;23.808;2023-08-21T03:18:11;95623.25;;;22.75;50.14
24160;BME280;62385;41.594;23.808;2023-08-21T03:20:37;95621.84;;;22.72;50.53
24160;BME280;62385;41.594;23.808;2023-08-21T03:23:03;95618.75;;;22.80;50.46
24160;BME280;62385;41.594;23.808;2023-08-21T03:25:28;95617.03;;;22.91;50.08
24160;BME280;62385;41.594;23.808;2023-08-21T03:27:54;95615.34;;;23.02;49.01
24160;BME280;62385;41.594;23.808;2023-08-21T03:30:21;95621.56;;;23.02;49.65
24160;BME280;62385;41.594;23.808;2023-08-21T03:32:47;95624.16;;;22.40;52.01
24160;BME280;62385;41.594;23.808;2023-08-21T03:35:12;95629.28;;;22.25;51.74
24160;BME280;62385;41.594;23.808;2023-08-21T03:37:38;95617.13;;;22.68;49.99
24160;BME280;62385;41.594;23.808;2023-08-21T03:40:06;95631.16;;;22.25;52.24
24160;BME280;62385;41.594;23.808;2023-08-21T03:42:32;95624.59;;;22.21;52.62
24160;BME280;62385;41.594;23.808;2023-08-21T03:44:59;95631.16;;;22.25;52.17
24160;BME280;62385;41.594;23.808;2023-08-21T03:47:24;95631.03;;;22.31;52.57
24160;BME280;62385;41.594;23.808;2023-08-21T03:49:58;95631.88;;;22.32;52.33
24160;BME280;62385;41.594;23.808;2023-08-21T03:52:25;95615.44;;;22.22;51.96
24160;BME280;62385;41.594;23.808;2023-08-21T03:54:50;95614.72;;;22.54;51.33
24160;BME280;62385;41.594;23.808;2023-08-21T03:57:16;95632.88;;;22.99;49.49
24160;BME280;62385;41.594;23.808;2023-08-21T03:59:42;95635.44;;;22.49;51.48
24160;BME280;62385;41.594;23.808;2023-08-21T04:02:07;95644.19;;;22.39;51.89
24160;BME280;62385;41.594;23.808;2023-08-21T04:04:33;95628.91;;;22.33;51.57
24160;BME280;62385;41.594;23.808;2023-08-21T04:06:59;95627.63;;;22.36;51.76
24160;BME280;62385;41.594;23.808;2023-08-21T04:09:24;95635.28;;;22.27;52.49
24160;BME280;62385;41.594;23.808;2023-08-21T04:11:51;95629.88;;;22.16;52.76
24160;BME280;62385;41.594;23.808;2023-08-21T04:14:16;95648.50;;;22.52;52.33
24160;BME280;62385;41.594;23.808;2023-08-21T04:17:00;95635.63;;;22.31;52.08
24160;BME280;62385;41.594;23.808;2023-08-21T04:19:26;95634.91;;;22.35;52.11
24160;BME280;62385;41.594;23.808;2023-08-21T04:21:55;95634.44;;;22.38;51.82
24160;BME280;62385;41.594;23.808;2023-08-21T04:24:23;95634.66;;;22.37;51.94
24160;BME280;62385;41.594;23.808;2023-08-21T04:26:49;95652.56;;;22.26;52.66
24160;BME280;62385;41.594;23.808;2023-08-21T04:29:15;95647.91;;;22.50;52.03
24160;BME280;62385;41.594;23.808;2023-08-21T04:31:40;95659.13;;;22.42;52.16
24160;BME280;62385;41.594;23.808;2023-08-21T04:34:06;95662.41;;;22.44;52.42
24160;BME280;62385;41.594;23.808;2023-08-21T04:36:32;95656.03;;;22.50;52.77
24160;BME280;62385;41.594;23.808;2023-08-21T04:38:59;95646.91;;;22.39;53.34
24160;BME280;62385;41.594;23.808;2023-08-21T04:41:25;95655.63;;;22.70;51.35
24160;BME280;62385;41.594;23.808;2023-08-21T04:43:51;95638.41;;;22.76;51.64
24160;BME280;62385;41.594;23.808;2023-08-21T04:46:17;95645.72;;;22.75;51.67
24160;BME280;62385;41.594;23.808;2023-08-21T04:48:44;95660.03;;;22.87;51.28
24160;BME280;62385;41.594;23.808;2023-08-21T04:51:11;95665.69;;;23.02;51.72
24160;BME280;62385;41.594;23.808;2023-08-21T04:53:36;95657.69;;;23.24;50.50
24160;BME280;62385;41.594;23.808;2023-08-21T04:56:05;95651.94;;;23.21;50.71
24160;BME280;62385;41.594;23.808;2023-08-21T04:58:33;95656.63;;;23.25;50.39
24160;BME280;62385;41.594;23.808;2023-08-21T05:00:58;95667.16;;;23.38;50.50
24160;BME280;62385;41.594;23.808;2023-08-21T05:03:26;95664.44;;;23.38;50.54
24160;BME280;62385;41.594;23.808;2023-08-21T05:05:52;95657.31;;;23.49;51.23
24160;BME280;62385;41.594;23.808;2023-08-21T05:08:24;95673.94;;;23.41;50.80
24160;BME280;62385;41.594;23.808;2023-08-21T05:10:57;95670.84;;;23.49;50.52
24160;BME280;62385;41.594;23.808;2023-08-21T05:13:24;95669.88;;;23.72;49.64
24160;BME280;62385;41.594;23.808;2023-08-21T05:15:53;95655.06;;;23.79;49.18
24160;BME280;62385;41.594;23.808;2023-08-21T05:18:20;95669.84;;;23.88;49.62
24160;BME280;62385;41.594;23.808;2023-08-21T05:20:47;95650.47;;;23.80;50.00
24160;BME280;62385;41.594;23.808;2023-08-21T05:23:12;95661.25;;;23.75;50.25
24160;BME280;62385;41.594;23.808;2023-08-21T05:25:38;95676.50;;;23.98;49.85
24160;BME280;62385;41.594;23.808;2023-08-21T05:28:05;95679.53;;;24.18;49.53
24160;BME280;62385;41.594;23.808;2023-08-21T05:30:30;95669.97;;;24.15;49.94
24160;BME280;62385;41.594;23.808;2023-08-21T05:32:57;95676.63;;;24.24;49.93
24160;BME280;62385;41.594;23.808;2023-08-21T05:35:23;95664.63;;;24.20;49.97
24160;BME280;62385;41.594;23.808;2023-08-21T05:37:50;95670.06;;;24.42;49.12
24160;BME280;62385;41.594;23.808;2023-08-21T05:40:16;95667.09;;;24.44;48.79
24160;BME280;62385;41.594;23.808;2023-08-21T05:42:41;95675.50;;;24.42;47.80
24160;BME280;62385;41.594;23.808;2023-08-21T05:45:07;95667.53;;;24.35;47.46
24160;BME280;62385;41.594;23.808;2023-08-21T05:47:34;95668.66;;;24.18;48.47
24160;BME280;62385;41.594;23.808;2023-08-21T05:49:59;95667.97;;;24.11;48.79
24160;BME280;62385;41.594;23.808;2023-08-21T05:52:25;95665.63;;;24.58;47.85
24160;BME280;62385;41.594;23.808;2023-08-21T05:54:50;95674.22;;;24.71;47.89
24160;BME280;62385;41.594;23.808;2023-08-21T05:57:16;95648.97;;;24.71;48.14
24160;BME280;62385;41.594;23.808;2023-08-21T05:59:45;95661.63;;;25.14;47.20
24160;BME280;62385;41.594;23.808;2023-08-21T06:02:13;95656.56;;;25.22;47.06
24160;BME280;62385;41.594;23.808;2023-08-21T06:04:43;95658.06;;;25.40;47.03
24160;BME280;62385;41.594;23.808;2023-08-21T06:07:09;95658.84;;;25.36;47.16
24160;BME280;62385;41.594;23.808;2023-08-21T06:09:35;95648.63;;;25.48;47.50
24160;BME280;62385;41.594;23.808;2023-08-21T06:12:02;95654.13;;;25.90;46.66
24160;BME280;62385;41.594;23.808;2023-08-21T06:14:29;95658.31;;;26.07;45.37
24160;BME280;62385;41.594;23.808;2023-08-21T06:17:02;95646.41;;;26.18;45.40
24160;BME280;62385;41.594;23.808;2023-08-21T06:19:29;95654.03;;;26.16;44.97
24160;BME280;62385;41.594;23.808;2023-08-21T06:21:55;95665.09;;;26.52;43.12
24160;BME280;62385;41.594;23.808;2023-08-21T06:24:21;95647.84;;;26.31;43.41
24160;BME280;62385;41.594;23.808;2023-08-21T06:26:52;95663.19;;;26.05;44.44
24160;BME280;62385;41.594;23.808;2023-08-21T06:29:18;95665.34;;;26.45;43.79
24160;BME280;62385;41.594;23.808;2023-08-21T06:31:46;95657.56;;;26.74;43.23
24160;BME280;62385;41.594;23.808;2023-08-21T06:34:12;95660.09;;;27.01;43.58
24160;BME280;62385;41.594;23.808;2023-08-21T06:36:38;95644.81;;;26.85;44.85
24160;BME280;62385;41.594;23.808;2023-08-21T06:39:05;95648.94;;;27.13;43.42
24160;BME280;62385;41.594;23.808;2023-08-21T06:41:31;95656.81;;;26.89;43.27
24160;BME280;62385;41.594;23.808;2023-08-21T06:43:57;95657.00;;;26.72;42.95
24160;BME280;62385;41.594;23.808;2023-08-21T06:46:23;95652.50;;;27.13;41.51
24160;BME280;62385;41.594;23.808;2023-08-21T06:48:48;95635.06;;;27.29;41.52
24160;BME280;62385;41.594;23.808;2023-08-21T06:51:15;95645.41;;;27.02;42.25
24160;BME280;62385;41.594;23.808;2023-08-21T06:53:42;95630.47;;;27.65;41.08
24160;BME280;62385;41.594;23.808;2023-08-21T06:56:07;95649.00;;;27.68;40.86
24160;BME280;62385;41.594;23.808;2023-08-21T06:58:33;95638.88;;;27.79;39.85
24160;BME280;62385;41.594;23.808;2023-08-21T07:01:00;95645.16;;;28.10;40.71
24160;BME280;62385;41.594;23.808;2023-08-21T07:03:45;95638.22;;;28.48;38.65
24160;BME280;62385;41.594;23.808;2023-08-21T07:06:10;95633.84;;;28.47;37.52
24160;BME280;62385;41.594;23.808;2023-08-21T07:08:36;95631.56;;;28.74;37.51
24160;BME280;62385;41.594;23.808;2023-08-21T07:11:03;95634.06;;;29.14;37.30
24160;BME280;62385;41.594;23.808;2023-08-21T07:13:29;95616.44;;;28.86;36.62
24160;BME280;62385;41.594;23.808;2023-08-21T07:15:55;95625.41;;;29.02;35.63
24160;BME280;62385;41.594;23.808;2023-08-21T07:18:20;95616.16;;;29.32;33.30
24160;BME280;62385;41.594;23.808;2023-08-21T07:20:46;95625.03;;;29.53;33.87
24160;BME280;62385;41.594;23.808;2023-08-21T07:23:11;95618.97;;;29.61;33.29
24160;BME280;62385;41.594;23.808;2023-08-21T07:25:37;95627.25;;;29.79;33.42
24160;BME280;62385;41.594;23.808;2023-08-21T07:28:03;95621.75;;;29.85;33.34
24160;BME280;62385;41.594;23.808;2023-08-21T07:30:28;95614.97;;;29.77;33.24
24160;BME280;62385;41.594;23.808;2023-08-21T07:32:54;95634.03;;;30.16;32.26
24160;BME280;62385;41.594;23.808;2023-08-21T07:35:20;95627.88;;;30.05;32.77
24160;BME280;62385;41.594;23.808;2023-08-21T07:37:46;95618.69;;;29.91;33.11
24160;BME280;62385;41.594;23.808;2023-08-21T07:40:12;95619.28;;;29.83;33.09
24160;BME280;62385;41.594;23.808;2023-08-21T07:42:38;95603.25;;;29.71;33.25
24160;BME280;62385;41.594;23.808;2023-08-21T07:45:05;95612.72;;;30.13;31.85
24160;BME280;62385;41.594;23.808;2023-08-21T07:47:30;95605.69;;;30.54;31.66
24160;BME280;62385;41.594;23.808;2023-08-21T07:49:56;95619.84;;;30.38;31.19
24160;BME280;62385;41.594;23.808;2023-08-21T07:52:23;95599.44;;;30.49;30.14
24160;BME280;62385;41.594;23.808;2023-08-21T07:54:52;95619.16;;;30.93;29.21
24160;BME280;62385;41.594;23.808;2023-08-21T07:57:18;95612.91;;;30.21;29.61
24160;BME280;62385;41.594;23.808;2023-08-21T07:59:44;95611.91;;;30.36;31.78
24160;BME280;62385;41.594;23.808;2023-08-21T08:02:09;95610.44;;;31.10;30.31
24160;BME280;62385;41.594;23.808;2023-08-21T08:04:38;95600.53;;;31.46;29.09
24160;BME280;62385;41.594;23.808;2023-08-21T08:07:03;95610.78;;;30.61;29.76
24160;BME280;62385;41.594;23.808;2023-08-21T08:09:30;95592.69;;;30.84;28.69
24160;BME280;62385;41.594;23.808;2023-08-21T08:11:56;95591.06;;;31.39;29.04
24160;BME280;62385;41.594;23.808;2023-08-21T08:14:21;95606.31;;;31.45;28.66
24160;BME280;62385;41.594;23.808;2023-08-21T08:16:47;95586.88;;;31.60;28.69
24160;BME280;62385;41.594;23.808;2023-08-21T08:19:12;95604.47;;;31.40;28.15
24160;BME280;62385;41.594;23.808;2023-08-21T08:21:38;95603.47;;;31.18;28.69
24160;BME280;62385;41.594;23.808;2023-08-21T08:24:04;95598.78;;;31.55;27.94
24160;BME280;62385;41.594;23.808;2023-08-21T08:26:29;95596.94;;;31.65;28.75
24160;BME280;62385;41.594;23.808;2023-08-21T08:29:14;95592.16;;;31.56;28.48
24160;BME280;62385;41.594;23.808;2023-08-21T08:31:40;95575.19;;;31.54;28.98
24160;BME280;62385;41.594;23.808;2023-08-21T08:34:05;95581.22;;;31.70;28.06
24160;BME280;62385;41.594;23.808;2023-08-21T08:36:31;95577.97;;;31.49;29.47
24160;BME280;62385;41.594;23.808;2023-08-21T08:38:57;95574.69;;;31.66;28.65
24160;BME280;62385;41.594;23.808;2023-08-21T08:41:26;95576.94;;;31.45;29.94
24160;BME280;62385;41.594;23.808;2023-08-21T08:43:57;95571.00;;;31.57;28.28
24160;BME280;62385;41.594;23.808;2023-08-21T08:46:24;95581.81;;;31.48;28.04
24160;BME280;62385;41.594;23.808;2023-08-21T08:48:51;95582.81;;;31.39;28.67
24160;BME280;62385;41.594;23.808;2023-08-21T08:51:17;95575.44;;;31.21;28.49
24160;BME280;62385;41.594;23.808;2023-08-21T08:53:44;95585.56;;;31.57;28.42
24160;BME280;62385;41.594;23.808;2023-08-21T08:56:09;95579.94;;;31.95;28.60
24160;BME280;62385;41.594;23.808;2023-08-21T08:58:36;95574.03;;;32.01;27.65
24160;BME280;62385;41.594;23.808;2023-08-21T09:01:02;95583.03;;;32.21;28.41
24160;BME280;62385;41.594;23.808;2023-08-21T09:03:28;95573.59;;;31.67;27.50
24160;BME280;62385;41.594;23.808;2023-08-21T09:05:55;95562.53;;;31.72;28.50
24160;BME280;62385;41.594;23.808;2023-08-21T09:08:20;95562.81;;;31.52;28.21
24160;BME280;62385;41.594;23.808;2023-08-21T09:10:46;95576.66;;;31.47;27.96
24160;BME280;62385;41.594;23.808;2023-08-21T09:13:15;95561.53;;;31.95;27.33
24160;BME280;62385;41.594;23.808;2023-08-21T09:21:29;95524.59;;;31.74;28.28
24160;BME280;62385;41.594;23.808;2023-08-21T09:23:59;95546.97;;;31.95;27.85
24160;BME280;62385;41.594;23.808;2023-08-21T09:26:25;95521.25;;;32.45;27.79
24160;BME280;62385;41.594;23.808;2023-08-21T09:28:52;95545.38;;;32.48;26.57
24160;BME280;62385;41.594;23.808;2023-08-21T09:31:22;95509.38;;;32.09;25.75
24160;BME280;62385;41.594;23.808;2023-08-21T09:33:55;95544.03;;;32.73;24.66
24160;BME280;62385;41.594;23.808;2023-08-21T09:36:22;95535.00;;;32.95;26.46
24160;BME280;62385;41.594;23.808;2023-08-21T09:38:48;95528.72;;;32.18;24.49
24160;BME280;62385;41.594;23.808;2023-08-21T09:41:21;95532.97;;;32.37;25.26
24160;BME280;62385;41.594;23.808;2023-08-21T09:43:48;95541.53;;;32.63;24.37
24160;BME280;62385;41.594;23.808;2023-08-21T09:46:15;95530.19;;;32.51;24.80
24160;BME280;62385;41.594;23.808;2023-08-21T09:48:44;95530.31;;;32.32;24.80
24160;BME280;62385;41.594;23.808;2023-08-21T09:51:13;95528.97;;;32.43;24.90
24160;BME280;62385;41.594;23.808;2023-08-21T09:53:57;95530.19;;;32.51;26.16
24160;BME280;62385;41.594;23.808;2023-08-21T09:56:25;95522.84;;;31.78;26.80
24160;BME280;62385;41.594;23.808;2023-08-21T09:58:51;95515.13;;;31.67;26.47
24160;BME280;62385;41.594;23.808;2023-08-21T10:01:20;95513.94;;;32.00;26.26
24160;BME280;62385;41.594;23.808;2023-08-21T10:03:47;95515.38;;;32.38;25.58
24160;BME280;62385;41.594;23.808;2023-08-21T10:06:15;95507.41;;;32.10;25.17
24160;BME280;62385;41.594;23.808;2023-08-21T10:08:42;95516.88;;;32.31;24.86
24160;BME280;62385;41.594;23.808;2023-08-21T10:11:11;95508.59;;;32.58;24.63
24160;BME280;62385;41.594;23.808;2023-08-21T10:13:38;95520.81;;;32.66;24.87
24160;BME280;62385;41.594;23.808;2023-08-21T10:16:07;95508.50;;;33.21;25.29
24160;BME280;62385;41.594;23.808;2023-08-21T10:18:35;95520.69;;;33.51;25.18
24160;BME280;62385;41.594;23.808;2023-08-21T10:21:30;95510.63;;;32.80;26.20
24160;BME280;62385;41.594;23.808;2023-08-21T10:24:00;95507.25;;;32.56;25.88
24160;BME280;62385;41.594;23.808;2023-08-21T10:26:26;95504.97;;;32.85;25.66
24160;BME280;62385;41.594;23.808;2023-08-21T10:28:59;95510.31;;;33.04;24.67
24160;BME280;62385;41.594;23.808;2023-08-21T10:31:37;95513.09;;;33.26;24.48
24160;BME280;62385;41.594;23.808;2023-08-21T10:34:13;95512.53;;;33.15;25.26
24160;BME280;62385;41.594;23.808;2023-08-21T10:39:24;95498.38;;;33.30;25.11
24160;BME280;62385;41.594;23.808;2023-08-21T10:41:58;95498.09;;;33.32;25.07
24160;BME280;62385;41.594;23.808;2023-08-21T10:50:04;95490.06;;;33.44;23.11
24160;BME280;62385;41.594;23.808;2023-08-21T10:52:38;95497.38;;;33.26;25.65
24160;BME280;62385;41.594;23.808;2023-08-21T10:55:07;95495.97;;;32.57;24.60
24160;BME280;62385;41.594;23.808;2023-08-21T10:57:36;95498.16;;;32.82;24.88
24160;BME280;62385;41.594;23.808;2023-08-21T11:00:10;95500.97;;;33.27;23.81
24160;BME280;62385;41.594;23.808;2023-08-21T11:02:40;95500.31;;;33.74;23.38
24160;BME280;62385;41.594;23.808;2023-08-21T11:05:07;95504.47;;;34.03;23.31
24160;BME280;62385;41.594;23.808;2023-08-21T11:12:48;95501.03;;;33.97;22.97
24160;BME280;62385;41.594;23.808;2023-08-21T11:15:15;95486.41;;;33.88;22.48
24160;BME280;62385;41.594;23.808;2023-08-21T11:17:41;95470.63;;;34.11;23.17
24160;BME280;62385;41.594;23.808;2023-08-21T11:20:07;95479.28;;;34.35;23.23
24160;BME280;62385;41.594;23.808;2023-08-21T11:22:33;95474.84;;;33.69;23.22
24160;BME280;62385;41.594;23.808;2023-08-21T11:24:59;95479.91;;;33.84;22.58
24160;BME280;62385;41.594;23.808;2023-08-21T11:27:24;95470.72;;;34.37;22.49
24160;BME280;62385;41.594;23.808;2023-08-21T11:29:51;95476.56;;;34.52;22.29
24160;BME280;62385;41.594;23.808;2023-08-21T11:32:22;95472.00;;;34.39;22.14
24160;BME280;62385;41.594;23.808;2023-08-21T11:34:48;95466.09;;;34.15;22.80
24160;BME280;62385;41.594;23.808;2023-08-21T11:37:16;95467.34;;;34.09;23.35
24160;BME280;62385;41.594;23.808;2023-08-21T11:39:50;95456.28;;;33.83;23.99
24160;BME280;62385;41.594;23.808;2023-08-21T11:42:18;95472.38;;;33.67;24.33
24160;BME280;62385;41.594;23.808;2023-08-21T11:44:52;95458.47;;;34.12;21.32
24160;BME280;62385;41.594;23.808;2023-08-21T11:47:20;95451.53;;;34.23;22.74
24160;BME280;62385;41.594;23.808;2023-08-21T11:49:47;95452.03;;;33.77;21.40
24160;BME280;62385;41.594;23.808;2023-08-21T11:52:18;95432.88;;;33.41;21.83
24160;BME280;62385;41.594;23.808;2023-08-21T11:54:48;95449.25;;;33.77;21.58
24160;BME280;62385;41.594;23.808;2023-08-21T11:57:14;95448.00;;;33.83;22.42
24160;BME280;62385;41.594;23.808;2023-08-21T11:59:41;95441.53;;;34.53;21.47
24160;BME280;62385;41.594;23.808;2023-08-21T12:02:14;95435.84;;;34.32;22.57
24160;BME280;62385;41.594;23.808;2023-08-21T12:04:41;95426.47;;;34.93;22.00
24160;BME280;62385;41.594;23.808;2023-08-21T12:07:06;95435.19;;;35.30;21.22
24160;BME280;62385;41.594;23.808;2023-08-21T12:09:32;95435.56;;;34.94;20.47
24160;BME280;62385;41.594;23.808;2023-08-21T12:11:57;95427.41;;;34.46;22.54
24160;BME280;62385;41.594;23.808;2023-08-21T12:14:23;95436.25;;;34.08;22.79
24160;BME280;62385;41.594;23.808;2023-08-21T12:16:48;95431.50;;;34.00;22.32
24160;BME280;62385;41.594;23.808;2023-08-21T12:19:14;95432.59;;;34.47;22.39
24160;BME280;62385;41.594;23.808;2023-08-21T12:21:40;95441.38;;;34.41;21.79
24160;BME280;62385;41.594;23.808;2023-08-21T12:24:06;95429.44;;;34.06;22.72
24160;BME280;62385;41.594;23.808;2023-08-21T12:26:33;95441.41;;;34.01;22.83
24160;BME280;62385;41.594;23.808;2023-08-21T12:28:58;95433.88;;;34.24;21.61
24160;BME280;62385;41.594;23.808;2023-08-21T12:31:24;95429.19;;;34.24;21.62
24160;BME280;62385;41.594;23.808;2023-08-21T12:33:49;95433.81;;;34.07;21.72
24160;BME280;62385;41.594;23.808;2023-08-21T12:36:15;95421.22;;;34.23;21.66
24160;BME280;62385;41.594;23.808;2023-08-21T12:38:41;95451.25;;;34.59;21.29
24160;BME280;62385;41.594;23.808;2023-08-21T12:41:06;95442.22;;;34.67;21.94
24160;BME280;62385;41.594;23.808;2023-08-21T12:43:32;95447.81;;;34.19;22.03
24160;BME280;62385;41.594;23.808;2023-08-21T12:45:58;95422.22;;;33.79;23.05
24160;BME280;62385;41.594;23.808;2023-08-21T12:48:24;95429.81;;;34.30;22.44
24160;BME280;62385;41.594;23.808;2023-08-21T12:50:49;95435.53;;;34.59;22.30
24160;BME280;62385;41.594;23.808;2023-08-21T12:53:15;95426.59;;;34.62;21.96
24160;BME280;62385;41.594;23.808;2023-08-21T12:55:41;95427.59;;;34.92;21.88
24160;BME280;62385;41.594;23.808;2023-08-21T12:58:08;95409.66;;;35.88;22.37
24160;BME280;62385;41.594;23.808;2023-08-21T13:00:33;95435.97;;;35.47;22.48
24160;BME280;62385;41.594;23.808;2023-08-21T13:02:59;95410.34;;;35.12;23.48
24160;BME280;62385;41.594;23.808;2023-08-21T13:05:24;95423.06;;;34.88;23.57
24160;BME280;62385;41.594;23.808;2023-08-21T13:07:50;95426.31;;;34.72;23.45
24160;BME280;62385;41.594;23.808;2023-08-21T13:10:15;95427.41;;;34.54;22.86
24160;BME280;62385;41.594;23.808;2023-08-21T13:12:41;95437.00;;;34.48;23.08
24160;BME280;62385;41.594;23.808;2023-08-21T13:15:07;95439.72;;;34.31;23.51